LKUO weather

Ústí nad Orlicí Airport
Ústí nad Orlicí, Pardubice Region, Czech Republic

Public forecast

Using degrees Celsius for public forecast. Weather courtesy of forecast.io.

Closest aviation weather report (METAR) to Ústí nad Orlicí Airport

Closest report is Pardubice Airport, 26.6 nm (49.3 km) W. Retrieved 2019/12/06 17:00 UTC (49 minutes ago):

LKPD 061700Z 10005KT CAVOK M02/M05 Q1016 NOSIG

Closest aviation forecast (TAF) to Ústí nad Orlicí Airport

Closest forecast is Pardubice Airport, 26.6 nm (49.3 km) W. Retrieved 2019/12/06 12:06 UTC (6 hours ago):

TAF LKPD 061100Z 0612/0712 12004KT CAVOK BECMG 0701/0703 23014G30KT BKN030 TEMPO 0702/0712 6000 RA OVC020